createdAt,value
2022-11-29T00:00:17.732Z,35.30
2022-11-29T00:02:47.795Z,35.10
2022-11-29T00:05:17.751Z,34.00
2022-11-29T00:07:47.301Z,35.10
2022-11-29T00:10:17.418Z,34.50
2022-11-29T00:12:50.147Z,32.30
2022-11-29T00:15:20.153Z,36.20
2022-11-29T00:17:49.894Z,35.90
2022-11-29T00:20:20.167Z,34.40
2022-11-29T00:22:49.784Z,37.30
2022-11-29T00:25:19.464Z,35.90
2022-11-29T00:27:49.508Z,35.00
2022-11-29T00:30:20.193Z,35.70
2022-11-29T00:32:49.757Z,36.10
2022-11-29T00:35:19.855Z,32.30
2022-11-29T00:37:49.833Z,30.80
2022-11-29T00:40:19.504Z,34.20
2022-11-29T00:42:49.155Z,34.00
2022-11-29T00:45:19.128Z,35.20
2022-11-29T00:47:49.189Z,35.40
2022-11-29T00:50:19.771Z,36.50
2022-11-29T00:52:49.367Z,35.60
2022-11-29T00:55:19.312Z,32.90
2022-11-29T00:57:48.974Z,29.20
2022-11-29T01:00:18.938Z,33.30
2022-11-29T01:02:48.683Z,28.40
2022-11-29T01:05:18.334Z,36.40
2022-11-29T01:07:48.390Z,29.60
2022-11-29T01:10:19.322Z,36.40
2022-11-29T01:12:49.002Z,31.70
2022-11-29T01:15:18.482Z,28.90
2022-11-29T01:17:49.766Z,31.10
2022-11-29T01:20:19.688Z,32.10
2022-11-29T01:22:49.517Z,31.60
2022-11-29T01:25:20.524Z,32.30
2022-11-29T01:27:50.761Z,35.20
2022-11-29T01:30:20.992Z,29.50
2022-11-29T01:32:50.931Z,27.70
2022-11-29T01:35:20.632Z,29.40
2022-11-29T01:37:50.657Z,29.70
2022-11-29T01:40:20.308Z,29.20
2022-11-29T01:42:50.250Z,29.00
2022-11-29T01:45:25.832Z,29.20
2022-11-29T01:47:57.613Z,29.90
2022-11-29T01:50:27.164Z,27.70
2022-11-29T01:52:57.106Z,31.00
2022-11-29T01:55:27.198Z,30.40
2022-11-29T01:58:02.537Z,33.30
2022-11-29T02:00:33.775Z,27.60
2022-11-29T02:03:15.308Z,35.20
2022-11-29T02:05:50.137Z,28.70
2022-11-29T02:08:29.876Z,28.40
2022-11-29T02:11:17.815Z,33.80
2022-11-29T02:14:08.306Z,29.90
2022-11-29T02:16:55.057Z,28.90
2022-11-29T02:19:44.519Z,28.20
2022-11-29T02:22:21.588Z,26.20
2022-11-29T02:25:32.510Z,30.00
2022-11-29T02:28:17.924Z,33.10
2022-11-29T02:31:27.993Z,28.50
2022-11-29T02:34:10.023Z,28.40
2022-11-29T02:36:45.854Z,28.80
2022-11-29T02:39:39.720Z,27.70
2022-11-29T02:42:28.009Z,28.20
2022-11-29T02:45:04.546Z,26.80
2022-11-29T02:47:52.031Z,28.90
2022-11-29T02:50:42.539Z,26.60
2022-11-29T02:53:20.110Z,26.30
2022-11-29T02:56:01.297Z,26.80
2022-11-29T02:58:36.702Z,26.90
2022-11-29T03:01:22.544Z,27.60
2022-11-29T03:04:10.450Z,27.20
2022-11-29T03:07:05.863Z,28.30
2022-11-29T03:09:35.419Z,28.40
2022-11-29T03:12:13.394Z,27.70
2022-11-29T03:14:57.520Z,29.40
2022-11-29T03:17:58.095Z,32.10
2022-11-29T03:20:54.555Z,33.70
2022-11-29T03:23:57.679Z,31.20
2022-11-29T03:26:44.108Z,28.50
2022-11-29T03:29:16.554Z,29.80
2022-11-29T03:32:07.924Z,32.30
2022-11-29T03:34:57.391Z,27.60
2022-11-29T03:37:51.779Z,28.20
2022-11-29T03:40:49.184Z,26.50
2022-11-29T03:43:46.773Z,26.30
2022-11-29T03:46:43.816Z,31.40
2022-11-29T03:49:39.113Z,27.40
2022-11-29T03:52:21.469Z,26.60
2022-11-29T03:55:21.138Z,26.40
2022-11-29T03:58:24.575Z,27.70
2022-11-29T04:01:05.417Z,25.10
2022-11-29T04:04:12.881Z,29.90
2022-11-29T04:07:23.003Z,32.40
2022-11-29T04:09:58.658Z,30.30
2022-11-29T04:12:48.520Z,28.00
2022-11-29T04:15:24.693Z,27.50
2022-11-29T04:18:03.417Z,28.50
2022-11-29T04:20:51.684Z,27.20
2022-11-29T04:23:47.827Z,29.00
2022-11-29T04:26:20.978Z,27.50
2022-11-29T04:29:11.961Z,26.80
2022-11-29T04:32:19.663Z,29.50
2022-11-29T04:35:00.549Z,27.50
2022-11-29T04:37:46.636Z,26.40
2022-11-29T04:40:46.735Z,28.50
2022-11-29T04:43:39.176Z,26.70
2022-11-29T04:46:35.631Z,26.40
2022-11-29T04:49:31.555Z,30.60
2022-11-29T04:52:46.133Z,27.90
2022-11-29T04:55:40.591Z,27.00
2022-11-29T04:58:31.478Z,26.90
2022-11-29T05:01:16.965Z,37.80
2022-11-29T05:04:12.283Z,29.90
2022-11-29T05:07:05.307Z,26.80
2022-11-29T05:10:05.671Z,27.20
2022-11-29T05:12:47.710Z,30.00
2022-11-29T05:15:38.537Z,28.50
2022-11-29T05:18:08.131Z,27.70
2022-11-29T05:21:08.169Z,27.10
2022-11-29T05:23:49.908Z,26.20
2022-11-29T05:26:29.436Z,26.90
2022-11-29T05:29:11.451Z,27.40
2022-11-29T05:31:57.894Z,27.80
2022-11-29T05:34:36.775Z,27.30
2022-11-29T05:37:14.712Z,28.90
2022-11-29T05:40:16.500Z,26.10
2022-11-29T05:42:59.008Z,23.80
2022-11-29T05:45:52.645Z,24.80
2022-11-29T05:48:48.731Z,25.10
2022-11-29T05:51:31.220Z,25.60
2022-11-29T05:54:28.976Z,24.70
2022-11-29T05:57:05.194Z,25.30
2022-11-29T05:59:35.950Z,24.80
2022-11-29T06:02:42.487Z,26.00
2022-11-29T06:06:01.713Z,24.10
2022-11-29T06:08:50.773Z,24.20
2022-11-29T06:11:42.162Z,24.50
2022-11-29T06:14:33.035Z,24.10
2022-11-29T06:17:35.683Z,32.10
2022-11-29T06:20:49.216Z,26.50
2022-11-29T06:23:42.965Z,23.20
2022-11-29T06:26:36.725Z,24.20
2022-11-29T06:29:28.182Z,23.50
2022-11-29T06:32:20.885Z,24.00
2022-11-29T06:35:13.771Z,23.90
2022-11-29T06:37:49.587Z,25.30
2022-11-29T06:40:22.124Z,24.20
2022-11-29T06:42:51.844Z,22.00
2022-11-29T06:45:22.627Z,30.60
2022-11-29T06:48:15.732Z,25.90
2022-11-29T06:51:02.630Z,22.70
2022-11-29T06:53:53.297Z,24.90
2022-11-29T06:56:49.364Z,23.80
2022-11-29T06:59:44.164Z,23.90
2022-11-29T07:02:23.905Z,27.00
2022-11-29T07:05:16.726Z,26.40
2022-11-29T07:07:49.581Z,23.90
2022-11-29T07:10:20.036Z,24.10
2022-11-29T07:12:50.752Z,25.30
2022-11-29T07:15:21.936Z,25.50
2022-11-29T07:17:54.642Z,25.30
2022-11-29T07:20:42.396Z,24.80
2022-11-29T07:23:28.020Z,25.90
2022-11-29T07:26:10.205Z,25.10
2022-11-29T07:29:25.845Z,28.20
2022-11-29T07:31:58.633Z,24.20
2022-11-29T07:34:53.499Z,25.00
2022-11-29T07:37:58.600Z,23.70
2022-11-29T07:40:37.613Z,22.50
2022-11-29T07:43:10.915Z,24.40
2022-11-29T07:45:41.095Z,23.20
2022-11-29T07:48:13.958Z,23.10
2022-11-29T07:50:43.919Z,23.30
2022-11-29T07:53:20.980Z,22.90
2022-11-29T07:55:51.369Z,25.90
2022-11-29T07:58:21.400Z,24.20
2022-11-29T08:00:50.915Z,26.50
2022-11-29T08:03:21.839Z,23.20
2022-11-29T08:05:56.267Z,24.80
2022-11-29T08:08:26.256Z,24.50
2022-11-29T08:10:56.293Z,23.60
2022-11-29T08:13:26.219Z,24.30
2022-11-29T08:15:56.202Z,24.90
2022-11-29T08:18:25.862Z,23.90
2022-11-29T08:20:55.775Z,26.30
2022-11-29T08:23:25.763Z,26.90
2022-11-29T08:26:01.251Z,28.00
2022-11-29T08:28:31.750Z,26.10
2022-11-29T08:31:06.721Z,25.60
2022-11-29T08:33:37.818Z,25.40
2022-11-29T08:36:18.433Z,25.50
2022-11-29T08:38:48.810Z,25.40
2022-11-29T08:41:19.448Z,24.80
2022-11-29T08:43:50.393Z,22.80
2022-11-29T08:46:20.441Z,26.00
2022-11-29T08:48:50.027Z,27.70
2022-11-29T08:51:19.878Z,25.50
2022-11-29T08:53:52.782Z,27.70
2022-11-29T08:57:16.774Z,30.30
2022-11-29T08:59:12.536Z,27.20
2022-11-29T09:01:42.563Z,26.60
2022-11-29T09:04:13.886Z,28.50
2022-11-29T09:06:45.240Z,31.20
2022-11-29T09:09:15.483Z,28.10
2022-11-29T09:11:49.222Z,28.50
2022-11-29T09:14:20.651Z,26.00
2022-11-29T09:16:50.307Z,25.60
2022-11-29T09:19:19.918Z,27.80
2022-11-29T09:21:49.402Z,28.10
2022-11-29T09:24:19.386Z,27.40
2022-11-29T09:26:57.982Z,26.50
2022-11-29T09:29:28.847Z,29.60
2022-11-29T09:31:59.004Z,29.00
2022-11-29T09:34:29.167Z,29.20
2022-11-29T09:36:59.190Z,26.80
2022-11-29T09:39:29.188Z,29.50
2022-11-29T09:42:13.976Z,27.70
2022-11-29T09:45:04.564Z,34.20
2022-11-29T09:48:09.834Z,25.60
2022-11-29T09:50:49.054Z,27.80
2022-11-29T09:53:55.214Z,26.50
2022-11-29T09:56:45.231Z,26.80
2022-11-29T09:59:28.193Z,29.10
2022-11-29T10:02:02.852Z,25.40
2022-11-29T10:04:37.177Z,27.50
2022-11-29T10:07:22.360Z,27.20
2022-11-29T10:10:12.997Z,29.50
2022-11-29T10:12:52.434Z,30.10
2022-11-29T10:15:24.148Z,23.40
2022-11-29T10:17:57.107Z,29.40
2022-11-29T10:20:29.275Z,25.50
2022-11-29T10:23:02.247Z,23.60
2022-11-29T10:25:35.989Z,23.90
2022-11-29T10:28:06.040Z,26.80
2022-11-29T10:30:35.558Z,26.60
2022-11-29T10:33:07.472Z,26.10
2022-11-29T10:35:37.450Z,25.40
2022-11-29T10:38:29.662Z,25.80
2022-11-29T10:41:00.322Z,27.40
2022-11-29T10:43:29.851Z,27.20
2022-11-29T10:45:59.549Z,30.20
2022-11-29T10:48:32.492Z,28.10
2022-11-29T10:51:15.656Z,25.60
2022-11-29T10:53:45.201Z,28.90
2022-11-29T10:56:31.119Z,25.60
2022-11-29T10:59:06.510Z,25.70
2022-11-29T11:01:44.052Z,28.40
2022-11-29T11:04:37.598Z,26.20
2022-11-29T11:07:07.239Z,25.00
2022-11-29T11:09:43.638Z,26.80
2022-11-29T11:12:17.294Z,26.00
2022-11-29T11:14:48.105Z,26.70
2022-11-29T11:17:28.687Z,25.40
2022-11-29T11:20:06.849Z,25.00
2022-11-29T11:22:37.196Z,25.30
2022-11-29T11:25:09.173Z,25.60
2022-11-29T11:27:42.280Z,26.20
2022-11-29T11:30:29.860Z,27.40
2022-11-29T11:33:23.750Z,25.50
2022-11-29T11:36:20.651Z,28.60
2022-11-29T11:39:14.018Z,24.20
2022-11-29T11:42:01.629Z,26.00
2022-11-29T11:44:52.728Z,26.40
2022-11-29T11:47:22.964Z,27.80
2022-11-29T11:50:03.182Z,24.20
2022-11-29T11:52:59.369Z,27.90
2022-11-29T11:55:38.468Z,29.60
2022-11-29T11:58:13.879Z,27.20
2022-11-29T12:01:04.771Z,25.90
2022-11-29T12:03:41.198Z,26.00
2022-11-29T12:06:36.506Z,28.00
2022-11-29T12:09:19.723Z,27.70
2022-11-29T12:12:08.314Z,26.10
2022-11-29T12:15:01.612Z,28.50
2022-11-29T12:17:40.841Z,29.50
2022-11-29T12:20:16.024Z,26.10
2022-11-29T12:22:54.986Z,27.20
2022-11-29T12:25:43.572Z,25.60
2022-11-29T12:28:18.716Z,27.70
2022-11-29T12:31:09.028Z,25.60
2022-11-29T12:33:48.376Z,28.30
2022-11-29T12:36:43.284Z,28.40
2022-11-29T12:39:28.876Z,28.00
2022-11-29T12:42:17.641Z,30.20
2022-11-29T12:45:21.051Z,28.30
2022-11-29T12:48:17.721Z,27.40
2022-11-29T12:50:53.754Z,29.40
2022-11-29T12:53:27.686Z,27.90
2022-11-29T12:56:12.005Z,27.80
2022-11-29T12:59:00.469Z,26.80
2022-11-29T13:01:56.355Z,28.10
2022-11-29T13:04:36.900Z,27.60
2022-11-29T13:07:28.124Z,27.00
2022-11-29T13:10:22.699Z,27.90
2022-11-29T13:13:06.051Z,27.90
2022-11-29T13:16:27.663Z,28.00
2022-11-29T13:19:30.405Z,30.50
2022-11-29T13:22:30.691Z,26.80
2022-11-29T13:25:14.295Z,28.30
2022-11-29T13:27:50.324Z,29.50
2022-11-29T13:30:20.343Z,27.30
2022-11-29T13:32:56.364Z,27.90
2022-11-29T13:35:31.531Z,25.80
2022-11-29T13:38:19.053Z,26.50
2022-11-29T13:41:18.383Z,26.60
2022-11-29T13:43:55.767Z,26.80
2022-11-29T13:46:28.085Z,27.90
2022-11-29T13:48:58.022Z,28.40
2022-11-29T13:51:35.122Z,28.30
2022-11-29T13:54:26.398Z,26.30
2022-11-29T13:57:09.861Z,28.70
2022-11-29T13:59:47.157Z,27.30
2022-11-29T14:02:31.640Z,27.20
2022-11-29T14:05:01.457Z,28.10
2022-11-29T14:07:30.914Z,26.50
2022-11-29T14:10:01.899Z,28.60
2022-11-29T14:12:49.836Z,27.40
2022-11-29T14:15:30.275Z,27.40
2022-11-29T14:18:04.769Z,26.80
2022-11-29T14:20:40.801Z,28.80
2022-11-29T14:23:13.163Z,30.50
2022-11-29T14:26:05.569Z,26.90
2022-11-29T14:28:36.351Z,26.10
2022-11-29T14:31:07.532Z,26.10
2022-11-29T14:33:44.425Z,26.00
2022-11-29T14:36:20.306Z,26.80
2022-11-29T14:38:49.875Z,27.10
2022-11-29T14:41:28.572Z,26.80
2022-11-29T14:44:30.555Z,26.20
2022-11-29T14:47:20.421Z,25.90
2022-11-29T14:49:50.412Z,25.60
2022-11-29T14:52:22.237Z,26.50
2022-11-29T14:55:01.150Z,28.50
2022-11-29T14:57:53.746Z,26.90
2022-11-29T15:00:34.128Z,28.30
2022-11-29T15:03:07.047Z,26.80
2022-11-29T15:06:00.802Z,27.90
2022-11-29T15:09:02.249Z,26.80
2022-11-29T15:11:59.293Z,26.00
2022-11-29T15:14:41.196Z,28.60
2022-11-29T15:17:29.136Z,27.50
2022-11-29T15:20:23.137Z,24.50
2022-11-29T15:22:56.727Z,25.70
2022-11-29T15:25:29.044Z,26.80
2022-11-29T15:28:07.006Z,26.00
2022-11-29T15:30:39.265Z,28.40
2022-11-29T15:33:17.241Z,26.10
2022-11-29T15:35:50.672Z,25.00
2022-11-29T15:38:20.607Z,24.70
2022-11-29T15:40:53.835Z,25.00
2022-11-29T15:43:27.641Z,24.10
2022-11-29T15:46:01.945Z,26.20
2022-11-29T15:48:34.788Z,25.30
2022-11-29T15:51:14.213Z,24.40
2022-11-29T15:53:54.055Z,26.10
2022-11-29T15:56:38.365Z,25.90
2022-11-29T15:59:25.061Z,27.40
2022-11-29T16:01:55.082Z,27.50
2022-11-29T16:04:25.578Z,26.90
2022-11-29T16:06:55.540Z,26.40
2022-11-29T16:09:33.909Z,26.10
2022-11-29T16:12:04.017Z,26.70
2022-11-29T16:14:34.026Z,27.50
2022-11-29T16:17:06.654Z,27.60
2022-11-29T16:19:37.624Z,26.60
2022-11-29T16:22:39.656Z,24.80
2022-11-29T16:25:17.350Z,26.60
2022-11-29T16:27:47.788Z,25.70
2022-11-29T16:30:24.381Z,28.00
2022-11-29T16:32:59.847Z,27.80
2022-11-29T16:35:35.334Z,27.20
2022-11-29T16:38:05.671Z,26.90
2022-11-29T16:40:36.191Z,25.20
2022-11-29T16:43:05.808Z,26.60
2022-11-29T16:45:42.047Z,25.60
2022-11-29T16:48:23.992Z,24.20
2022-11-29T16:51:15.152Z,23.90
2022-11-29T16:53:48.523Z,25.30
2022-11-29T16:56:25.646Z,24.90
2022-11-29T16:59:17.268Z,27.50
2022-11-29T17:01:52.629Z,25.60
2022-11-29T17:04:23.408Z,24.70
2022-11-29T17:06:58.152Z,25.70
2022-11-29T17:09:29.246Z,24.20
2022-11-29T17:12:01.950Z,26.30
2022-11-29T17:14:32.683Z,27.30
2022-11-29T17:17:02.763Z,23.90
2022-11-29T17:19:32.703Z,25.50
2022-11-29T17:22:02.249Z,26.20
2022-11-29T17:24:31.858Z,26.70
2022-11-29T17:27:01.817Z,24.80
2022-11-29T17:29:31.481Z,26.70
2022-11-29T17:32:01.055Z,26.40
2022-11-29T17:34:31.297Z,25.00
2022-11-29T17:37:00.830Z,24.50
2022-11-29T17:39:30.483Z,24.30
2022-11-29T17:41:59.974Z,25.30
2022-11-29T17:44:29.402Z,26.90
2022-11-29T17:46:58.859Z,24.40
2022-11-29T17:49:28.509Z,26.00
2022-11-29T17:51:58.404Z,25.50
2022-11-29T17:54:28.480Z,24.80
2022-11-29T17:56:58.085Z,25.70
2022-11-29T17:59:27.797Z,27.50
2022-11-29T18:01:57.267Z,27.30
2022-11-29T18:04:27.190Z,24.80
2022-11-29T18:06:56.695Z,25.00
2022-11-29T18:09:26.147Z,25.60
2022-11-29T18:11:55.551Z,24.10
2022-11-29T18:14:28.809Z,23.30
2022-11-29T18:16:59.047Z,24.60
2022-11-29T18:19:29.294Z,26.10
2022-11-29T18:21:58.953Z,27.70
2022-11-29T18:24:28.402Z,28.30
2022-11-29T18:26:58.292Z,24.60
2022-11-29T18:29:30.473Z,25.70
2022-11-29T18:32:04.018Z,24.00
2022-11-29T18:34:34.040Z,23.90
2022-11-29T18:37:04.390Z,25.80
2022-11-29T18:39:34.518Z,27.10
2022-11-29T18:42:04.047Z,27.20
2022-11-29T18:44:33.883Z,25.90
2022-11-29T18:47:04.689Z,25.40
2022-11-29T18:49:34.355Z,25.60
2022-11-29T18:52:03.834Z,27.30
2022-11-29T18:54:33.458Z,25.20
2022-11-29T18:57:02.863Z,25.70
2022-11-29T18:59:32.352Z,24.40
2022-11-29T19:02:01.795Z,26.00
2022-11-29T19:04:31.375Z,24.80
2022-11-29T19:07:00.847Z,26.40
2022-11-29T19:09:30.457Z,25.40
2022-11-29T19:12:00.369Z,26.20
2022-11-29T19:14:31.288Z,26.30
2022-11-29T19:17:01.058Z,26.10
2022-11-29T19:19:32.099Z,25.40
2022-11-29T19:22:02.541Z,23.70
2022-11-29T19:24:32.421Z,23.80
2022-11-29T19:27:03.807Z,23.90
2022-11-29T19:29:39.360Z,24.60
2022-11-29T19:32:10.629Z,24.20
2022-11-29T19:34:41.894Z,24.00
2022-11-29T19:37:12.048Z,23.00
2022-11-29T19:39:42.007Z,24.90
2022-11-29T19:42:12.008Z,24.50
2022-11-29T19:45:14.766Z,25.20
2022-11-29T19:47:32.908Z,23.40
2022-11-29T19:50:03.015Z,22.20
2022-11-29T19:52:32.607Z,21.90
2022-11-29T19:55:03.728Z,22.80
2022-11-29T19:57:34.066Z,23.50
2022-11-29T20:00:05.081Z,26.70
2022-11-29T20:02:41.464Z,24.80
2022-11-29T20:05:13.109Z,25.30
2022-11-29T20:07:43.657Z,24.20
2022-11-29T20:10:13.502Z,24.70
2022-11-29T20:12:43.385Z,26.80
2022-11-29T20:15:13.779Z,23.70
2022-11-29T20:17:43.765Z,25.20
2022-11-29T20:20:14.328Z,23.20
2022-11-29T20:22:43.753Z,25.10
2022-11-29T20:25:14.503Z,25.70
2022-11-29T20:27:44.576Z,24.50
2022-11-29T20:30:14.905Z,24.20
2022-11-29T20:32:44.830Z,23.40
2022-11-29T20:35:16.643Z,24.80
2022-11-29T20:38:08.368Z,24.50
2022-11-29T20:41:03.008Z,23.60
2022-11-29T20:43:58.142Z,24.70
2022-11-29T20:46:28.305Z,25.80
2022-11-29T20:49:03.161Z,26.40
2022-11-29T20:51:47.791Z,25.10
2022-11-29T20:54:17.307Z,25.60
2022-11-29T20:56:46.830Z,25.70
2022-11-29T20:59:16.371Z,24.20
2022-11-29T21:01:46.319Z,22.60
2022-11-29T21:04:20.192Z,24.80
2022-11-29T21:06:52.482Z,24.20
2022-11-29T21:09:21.982Z,23.90
2022-11-29T21:11:52.011Z,23.20
2022-11-29T21:14:22.172Z,24.00
2022-11-29T21:16:51.943Z,23.60
2022-11-29T21:19:22.237Z,24.20
2022-11-29T21:21:54.652Z,25.30
2022-11-29T21:24:49.448Z,23.90
2022-11-29T21:27:33.587Z,25.10
2022-11-29T21:30:05.355Z,25.70
2022-11-29T21:32:35.211Z,25.30
2022-11-29T21:35:05.256Z,23.00
2022-11-29T21:37:35.233Z,23.30
2022-11-29T21:40:05.860Z,24.50
2022-11-29T21:42:35.996Z,24.60
2022-11-29T21:45:10.442Z,24.00
2022-11-29T21:47:45.368Z,24.10
2022-11-29T21:50:15.488Z,25.50
2022-11-29T21:52:45.131Z,24.70
2022-11-29T21:55:14.600Z,23.60
2022-11-29T21:57:44.502Z,25.10
2022-11-29T22:00:14.652Z,25.00
2022-11-29T22:02:44.284Z,23.00
2022-11-29T22:05:14.277Z,23.40
2022-11-29T22:07:43.960Z,23.70
2022-11-29T22:10:13.799Z,25.30
2022-11-29T22:12:51.815Z,25.20
2022-11-29T22:15:24.989Z,24.70
2022-11-29T22:17:55.445Z,23.70
2022-11-29T22:20:25.091Z,24.10
2022-11-29T22:22:58.682Z,25.10
2022-11-29T22:25:28.612Z,23.50
2022-11-29T22:27:58.147Z,25.20
2022-11-29T22:30:28.973Z,24.20
2022-11-29T22:32:58.949Z,24.10
2022-11-29T22:35:30.697Z,24.10
2022-11-29T22:38:00.859Z,26.00
2022-11-29T22:40:30.245Z,23.00
2022-11-29T22:43:00.111Z,23.90
2022-11-29T22:45:30.081Z,23.50
2022-11-29T22:47:59.715Z,25.70
2022-11-29T22:50:33.177Z,25.40
2022-11-29T22:53:02.808Z,23.50
2022-11-29T22:55:32.292Z,25.70
2022-11-29T22:58:01.770Z,25.40
2022-11-29T23:00:32.080Z,24.50
2022-11-29T23:03:01.606Z,24.20
2022-11-29T23:05:32.539Z,26.10
2022-11-29T23:08:02.609Z,23.90
2022-11-29T23:10:33.140Z,24.30
2022-11-29T23:13:03.679Z,22.80
2022-11-29T23:15:33.118Z,23.80
2022-11-29T23:18:02.778Z,25.00
2022-11-29T23:20:32.783Z,23.50
2022-11-29T23:23:02.403Z,25.60
2022-11-29T23:25:38.021Z,24.90
2022-11-29T23:28:07.417Z,23.80
2022-11-29T23:30:38.370Z,25.10
2022-11-29T23:33:08.438Z,23.70
2022-11-29T23:35:38.008Z,24.40
2022-11-29T23:38:08.390Z,23.20
2022-11-29T23:40:38.417Z,26.00
2022-11-29T23:43:08.017Z,22.80
2022-11-29T23:45:41.106Z,24.50
2022-11-29T23:48:10.405Z,23.50
2022-11-29T23:50:40.253Z,23.10
2022-11-29T23:53:11.739Z,24.60
2022-11-29T23:55:41.393Z,23.60
2022-11-29T23:58:11.128Z,24.60
